createdAt,value
2018-05-24T00:02:15.096Z,17.23
2018-05-24T00:04:41.387Z,17.21
2018-05-24T00:07:07.676Z,17.22
2018-05-24T00:09:33.964Z,17.07
2018-05-24T00:12:00.254Z,16.72
2018-05-24T00:14:26.547Z,16.64
2018-05-24T00:16:52.839Z,16.64
2018-05-24T00:19:19.129Z,16.80
2018-05-24T00:21:45.422Z,17.01
2018-05-24T00:24:11.725Z,17.22
2018-05-24T00:26:38.011Z,17.40
2018-05-24T00:29:04.306Z,17.50
2018-05-24T00:31:30.611Z,17.52
2018-05-24T00:33:56.914Z,17.38
2018-05-24T00:36:23.205Z,17.47
2018-05-24T00:38:49.498Z,17.51
2018-05-24T00:41:15.828Z,17.56
2018-05-24T00:43:42.124Z,17.63
2018-05-24T00:46:08.418Z,17.56
2018-05-24T00:48:34.755Z,17.48
2018-05-24T00:51:01.056Z,17.46
2018-05-24T00:53:27.346Z,17.31
2018-05-24T00:55:53.648Z,17.19
2018-05-24T00:58:19.943Z,17.18
2018-05-24T01:00:46.235Z,17.17
2018-05-24T01:03:12.567Z,17.19
2018-05-24T01:05:38.862Z,17.22
2018-05-24T01:08:05.160Z,17.26
2018-05-24T01:10:31.457Z,17.16
2018-05-24T01:12:57.753Z,17.21
2018-05-24T01:15:24.045Z,17.28
2018-05-24T01:17:50.342Z,17.36
2018-05-24T01:20:16.633Z,17.28
2018-05-24T01:22:42.931Z,17.31
2018-05-24T01:25:09.275Z,17.42
2018-05-24T01:27:35.565Z,17.52
2018-05-24T01:30:01.913Z,17.42
2018-05-24T01:32:28.207Z,17.33
2018-05-24T01:34:54.508Z,17.30
2018-05-24T01:37:20.803Z,17.26
2018-05-24T01:39:47.097Z,17.27
2018-05-24T01:42:13.401Z,17.27
2018-05-24T01:44:39.696Z,17.20
2018-05-24T01:47:06.028Z,17.28
2018-05-24T01:49:32.281Z,17.35
2018-05-24T01:51:58.579Z,17.20
2018-05-24T01:54:24.863Z,16.99
2018-05-24T01:56:51.151Z,16.96
2018-05-24T01:59:17.439Z,16.82
2018-05-24T02:01:43.730Z,16.73
2018-05-24T02:04:10.023Z,16.66
2018-05-24T02:06:36.310Z,16.69
2018-05-24T02:09:02.600Z,16.64
2018-05-24T02:11:28.940Z,16.68
2018-05-24T02:13:55.275Z,16.64
2018-05-24T02:16:21.565Z,16.58
2018-05-24T02:18:47.853Z,16.48
2018-05-24T02:21:14.144Z,16.47
2018-05-24T02:23:40.435Z,16.42
2018-05-24T02:26:06.728Z,16.44
2018-05-24T02:28:33.016Z,16.49
2018-05-24T02:30:59.313Z,16.46
2018-05-24T02:33:25.595Z,16.45
2018-05-24T02:35:51.951Z,16.48
2018-05-24T02:38:18.196Z,16.64
2018-05-24T02:40:44.491Z,16.49
2018-05-24T02:43:10.780Z,16.53
2018-05-24T02:45:37.080Z,16.42
2018-05-24T02:48:03.374Z,16.41
2018-05-24T02:50:29.681Z,16.38
2018-05-24T02:52:56.024Z,16.32
2018-05-24T02:55:22.309Z,16.31
2018-05-24T02:57:48.601Z,16.34
2018-05-24T03:00:14.967Z,16.37
2018-05-24T03:02:41.252Z,16.39
2018-05-24T03:05:07.547Z,16.43
2018-05-24T03:07:33.831Z,16.42
2018-05-24T03:10:00.133Z,16.42
2018-05-24T03:12:26.429Z,16.37
2018-05-24T03:14:52.720Z,16.39
2018-05-24T03:17:19.015Z,16.45
2018-05-24T03:19:45.345Z,16.52
2018-05-24T03:22:11.633Z,16.47
2018-05-24T03:24:37.923Z,16.53
2018-05-24T03:27:04.214Z,16.59
2018-05-24T03:29:30.504Z,16.75
2018-05-24T03:31:56.797Z,16.77
2018-05-24T03:34:23.083Z,16.75
2018-05-24T03:36:49.373Z,16.70
2018-05-24T03:39:15.664Z,16.68
2018-05-24T03:41:41.957Z,16.79
2018-05-24T03:44:08.253Z,16.84
2018-05-24T03:46:34.539Z,16.80
2018-05-24T03:49:00.832Z,16.74
2018-05-24T03:51:27.119Z,16.78
2018-05-24T03:53:53.411Z,16.82
2018-05-24T03:56:19.704Z,16.77
2018-05-24T03:58:45.988Z,16.88
2018-05-24T04:01:12.277Z,16.96
2018-05-24T04:03:38.568Z,16.90
2018-05-24T04:06:04.905Z,16.90
2018-05-24T04:08:31.210Z,16.99
2018-05-24T04:10:57.498Z,17.02
2018-05-24T04:13:23.793Z,17.12
2018-05-24T04:15:50.079Z,17.13
2018-05-24T04:18:16.372Z,17.14
2018-05-24T04:20:42.666Z,17.13
2018-05-24T04:23:08.994Z,17.16
2018-05-24T04:25:35.250Z,17.25
2018-05-24T04:28:01.546Z,17.36
2018-05-24T04:30:27.838Z,17.39
2018-05-24T04:32:54.159Z,17.38
2018-05-24T04:35:20.426Z,17.33
2018-05-24T04:37:46.716Z,17.28
2018-05-24T04:40:13.022Z,17.33
2018-05-24T04:42:39.323Z,17.41
2018-05-24T04:45:05.620Z,17.47
2018-05-24T04:47:31.919Z,17.47
2018-05-24T04:49:58.215Z,17.50
2018-05-24T04:52:24.504Z,17.55
2018-05-24T04:54:50.809Z,17.61
2018-05-24T04:57:17.102Z,17.79
2018-05-24T04:59:43.387Z,17.79
2018-05-24T05:02:09.676Z,17.68
2018-05-24T05:04:35.963Z,17.79
2018-05-24T05:07:02.255Z,17.71
2018-05-24T05:09:28.624Z,17.71
2018-05-24T05:11:54.945Z,17.73
2018-05-24T05:14:21.238Z,17.93
2018-05-24T05:16:47.529Z,17.99
2018-05-24T05:19:13.834Z,18.02
2018-05-24T05:21:40.120Z,18.10
2018-05-24T05:24:06.423Z,18.14
2018-05-24T05:26:32.707Z,18.00
2018-05-24T05:28:59.038Z,18.09
2018-05-24T05:31:25.323Z,18.21
2018-05-24T05:33:51.611Z,18.42
2018-05-24T05:36:17.899Z,19.59
2018-05-24T05:38:44.199Z,20.74
2018-05-24T05:41:10.482Z,21.62
2018-05-24T05:43:36.777Z,22.49
2018-05-24T05:46:03.064Z,22.86
2018-05-24T05:48:29.398Z,23.56
2018-05-24T05:50:55.693Z,22.65
2018-05-24T05:53:21.979Z,22.61
2018-05-24T05:55:48.267Z,22.80
2018-05-24T05:58:14.605Z,22.54
2018-05-24T06:00:40.893Z,22.37
2018-05-24T06:03:07.185Z,22.51
2018-05-24T06:05:33.489Z,22.71
2018-05-24T06:07:59.787Z,22.99
2018-05-24T06:10:26.092Z,23.37
2018-05-24T06:12:52.379Z,23.13
2018-05-24T06:15:18.668Z,23.07
2018-05-24T06:17:44.967Z,22.06
2018-05-24T06:20:11.257Z,21.69
2018-05-24T06:22:37.547Z,21.15
2018-05-24T06:25:03.842Z,20.34
2018-05-24T06:27:30.143Z,20.05
2018-05-24T06:29:56.436Z,19.85
2018-05-24T06:32:22.724Z,19.88
2018-05-24T06:34:49.014Z,19.86
2018-05-24T06:37:15.394Z,19.90
2018-05-24T06:39:41.609Z,19.88
2018-05-24T06:42:07.908Z,19.78
2018-05-24T06:44:34.200Z,19.72
2018-05-24T06:47:00.498Z,19.80
2018-05-24T06:49:26.798Z,19.85
2018-05-24T06:51:53.101Z,19.58
2018-05-24T06:54:19.399Z,19.58
2018-05-24T06:56:45.693Z,19.53
2018-05-24T06:59:11.990Z,19.47
2018-05-24T07:01:38.275Z,19.61
2018-05-24T07:04:04.563Z,19.61
2018-05-24T07:06:30.865Z,19.67
2018-05-24T07:08:57.147Z,19.72
2018-05-24T07:11:23.444Z,19.79
2018-05-24T07:13:49.746Z,19.95
2018-05-24T07:16:16.033Z,20.29
2018-05-24T07:18:42.361Z,20.52
2018-05-24T07:21:08.621Z,20.96
2018-05-24T07:23:34.916Z,21.18
2018-05-24T07:26:01.218Z,21.43
2018-05-24T07:28:27.503Z,21.53
2018-05-24T07:30:53.806Z,21.52
2018-05-24T07:33:20.098Z,22.09
2018-05-24T07:35:46.389Z,21.95
2018-05-24T07:38:12.689Z,22.46
2018-05-24T07:40:38.977Z,22.38
2018-05-24T07:43:05.270Z,21.94
2018-05-24T07:45:31.563Z,21.84
2018-05-24T07:47:57.851Z,21.69
2018-05-24T07:50:24.141Z,21.75
2018-05-24T07:52:50.430Z,21.56
2018-05-24T07:55:16.719Z,21.65
2018-05-24T07:57:43.013Z,21.68
2018-05-24T08:00:09.309Z,21.96
2018-05-24T08:02:35.592Z,22.20
2018-05-24T08:05:01.885Z,22.28
2018-05-24T08:07:28.179Z,22.51
2018-05-24T08:09:54.481Z,23.02
2018-05-24T08:12:20.768Z,23.90
2018-05-24T08:14:47.149Z,24.16
2018-05-24T08:17:13.360Z,24.60
2018-05-24T08:19:39.652Z,24.41
2018-05-24T08:22:05.941Z,23.77
2018-05-24T08:24:32.232Z,24.09
2018-05-24T08:26:58.528Z,25.13
2018-05-24T08:29:24.828Z,25.98
2018-05-24T08:31:51.116Z,25.80
2018-05-24T08:34:17.413Z,26.10
2018-05-24T08:36:43.752Z,26.43
2018-05-24T08:39:10.036Z,26.22
2018-05-24T08:41:36.371Z,25.42
2018-05-24T08:44:02.657Z,25.56
2018-05-24T08:46:28.947Z,26.21
2018-05-24T08:48:55.232Z,26.98
2018-05-24T08:51:21.528Z,25.64
2018-05-24T08:53:47.817Z,24.84
2018-05-24T08:56:14.119Z,26.08
2018-05-24T08:58:40.416Z,25.02
2018-05-24T09:01:06.720Z,24.76
2018-05-24T09:03:33.015Z,24.23
2018-05-24T09:05:59.305Z,24.57
2018-05-24T09:08:25.607Z,24.55
2018-05-24T09:10:51.926Z,24.16
2018-05-24T09:13:18.227Z,23.92
2018-05-24T09:15:44.519Z,24.02
2018-05-24T09:18:10.821Z,24.27
2018-05-24T09:20:37.122Z,24.42
2018-05-24T09:23:03.416Z,24.44
2018-05-24T09:25:29.710Z,24.42
2018-05-24T09:27:55.997Z,24.13
2018-05-24T09:30:22.308Z,24.53
2018-05-24T09:32:48.595Z,24.84
2018-05-24T09:35:14.885Z,25.11
2018-05-24T09:37:41.171Z,25.76
2018-05-24T09:40:07.461Z,25.90
2018-05-24T09:42:33.797Z,25.75
2018-05-24T09:45:00.088Z,25.42
2018-05-24T09:47:26.376Z,24.98
2018-05-24T09:49:52.667Z,24.53
2018-05-24T09:52:18.982Z,24.44
2018-05-24T09:54:45.272Z,24.22
2018-05-24T09:57:11.568Z,23.36
2018-05-24T09:59:37.863Z,23.01
2018-05-24T10:02:04.208Z,23.25
2018-05-24T10:04:30.572Z,23.23
2018-05-24T10:06:56.784Z,22.93
2018-05-24T10:09:23.076Z,22.88
2018-05-24T10:11:49.371Z,22.93
2018-05-24T10:14:15.665Z,22.95
2018-05-24T10:16:41.962Z,22.73
2018-05-24T10:19:08.247Z,22.33
2018-05-24T10:21:34.546Z,22.17
2018-05-24T10:24:00.841Z,21.79
2018-05-24T10:26:27.130Z,21.40
2018-05-24T10:28:53.439Z,21.30
2018-05-24T10:31:19.724Z,21.12
2018-05-24T10:33:46.021Z,21.02
2018-05-24T10:36:12.312Z,20.77
2018-05-24T10:38:38.615Z,20.62
2018-05-24T10:41:04.907Z,20.46
2018-05-24T10:43:31.229Z,20.26
2018-05-24T10:45:57.489Z,19.90
2018-05-24T10:48:23.779Z,19.53
2018-05-24T10:50:50.100Z,19.60
2018-05-24T10:53:16.362Z,19.52
2018-05-24T10:55:42.660Z,19.41
2018-05-24T10:58:08.945Z,19.16
2018-05-24T11:00:35.236Z,19.09
2018-05-24T11:03:01.621Z,19.11
2018-05-24T11:05:27.811Z,19.09
2018-05-24T11:07:54.125Z,18.97
2018-05-24T11:10:20.411Z,18.90
2018-05-24T11:12:46.705Z,18.56
2018-05-24T11:15:13.003Z,18.62
2018-05-24T11:17:39.293Z,18.59
2018-05-24T11:20:05.639Z,18.44
2018-05-24T11:22:31.926Z,18.16
2018-05-24T11:24:58.225Z,17.85
2018-05-24T11:27:24.515Z,17.40
2018-05-24T11:29:50.849Z,17.06
2018-05-24T11:32:17.135Z,17.06
2018-05-24T11:34:43.423Z,16.99
2018-05-24T11:37:09.867Z,16.99
2018-05-24T11:39:36.008Z,17.08
2018-05-24T11:42:02.304Z,17.15
2018-05-24T11:44:28.632Z,17.21
2018-05-24T11:46:54.925Z,17.30
2018-05-24T11:49:21.261Z,17.18
2018-05-24T11:51:47.551Z,17.06
2018-05-24T11:54:13.843Z,16.90
2018-05-24T11:56:40.132Z,16.77
2018-05-24T11:59:06.434Z,16.66
2018-05-24T12:01:32.718Z,16.48
2018-05-24T12:03:59.012Z,16.37
2018-05-24T12:06:25.313Z,16.29
2018-05-24T12:08:51.613Z,16.14
2018-05-24T12:11:17.915Z,15.84
2018-05-24T12:13:44.213Z,15.59
2018-05-24T12:16:10.501Z,15.47
2018-05-24T12:18:36.852Z,15.47
2018-05-24T12:21:03.142Z,15.57
2018-05-24T12:23:29.462Z,15.57
2018-05-24T12:25:55.777Z,15.67
2018-05-24T12:28:22.107Z,15.69
2018-05-24T12:30:48.396Z,15.64
2018-05-24T12:33:14.737Z,15.60
2018-05-24T12:35:41.102Z,15.64
2018-05-24T12:38:07.349Z,15.66
2018-05-24T12:40:33.635Z,15.82
2018-05-24T12:42:59.967Z,15.79
2018-05-24T12:45:26.252Z,15.94
2018-05-24T12:47:52.551Z,16.01
2018-05-24T12:50:18.838Z,15.96
2018-05-24T12:52:45.134Z,16.13
2018-05-24T12:55:11.469Z,16.34
2018-05-24T12:57:37.759Z,16.42
2018-05-24T13:00:04.515Z,16.51
2018-05-24T13:02:30.810Z,16.67
2018-05-24T13:04:57.141Z,16.80
2018-05-24T13:07:23.441Z,16.87
2018-05-24T13:09:49.745Z,16.89
2018-05-24T13:12:16.044Z,16.98
2018-05-24T13:14:42.336Z,17.14
2018-05-24T13:17:08.641Z,17.29
2018-05-24T13:19:34.932Z,17.56
2018-05-24T13:22:01.243Z,17.62
2018-05-24T13:24:27.549Z,17.71
2018-05-24T13:26:53.823Z,17.93
2018-05-24T13:29:20.125Z,18.08
2018-05-24T13:31:46.427Z,18.10
2018-05-24T13:34:12.712Z,18.12
2018-05-24T13:36:39.105Z,18.13
2018-05-24T13:39:05.376Z,18.23
2018-05-24T13:41:31.680Z,18.23
2018-05-24T13:43:58.257Z,18.47
2018-05-24T13:46:24.544Z,18.68
2018-05-24T13:48:50.839Z,18.95
2018-05-24T13:51:17.136Z,19.13
2018-05-24T13:53:43.429Z,19.32
2018-05-24T13:56:09.723Z,19.56
2018-05-24T13:58:36.019Z,19.55
2018-05-24T14:01:02.315Z,19.77
2018-05-24T14:03:28.611Z,19.92
2018-05-24T14:05:54.910Z,19.88
2018-05-24T14:08:21.222Z,19.73
2018-05-24T14:10:47.495Z,19.60
2018-05-24T14:13:13.789Z,19.39
2018-05-24T14:15:40.110Z,19.64
2018-05-24T14:18:06.452Z,19.68
2018-05-24T14:20:32.747Z,19.56
2018-05-24T14:22:59.041Z,19.73
2018-05-24T14:25:25.322Z,19.66
2018-05-24T14:27:51.612Z,19.62
2018-05-24T14:30:17.898Z,19.58
2018-05-24T14:32:44.239Z,19.65
2018-05-24T14:35:12.981Z,19.60
2018-05-24T14:37:39.277Z,19.69
2018-05-24T14:40:05.573Z,19.74
2018-05-24T14:42:31.881Z,19.83
2018-05-24T14:44:58.206Z,19.91
2018-05-24T14:47:24.508Z,20.04
2018-05-24T14:49:50.767Z,20.03
2018-05-24T14:52:17.097Z,20.16
2018-05-24T14:54:43.423Z,20.21
2018-05-24T14:57:09.753Z,20.16
2018-05-24T14:59:36.087Z,20.09
2018-05-24T15:02:02.379Z,20.10
2018-05-24T15:04:28.677Z,20.29
2018-05-24T15:06:55.140Z,20.24
2018-05-24T15:09:21.316Z,20.14
2018-05-24T15:11:47.647Z,20.20
2018-05-24T15:14:13.941Z,20.23
2018-05-24T15:16:40.231Z,20.06
2018-05-24T15:19:06.560Z,20.08
2018-05-24T15:21:32.892Z,20.19
2018-05-24T15:23:59.186Z,20.10
2018-05-24T15:26:25.482Z,20.01
2018-05-24T15:28:51.778Z,20.04
2018-05-24T15:31:18.103Z,20.14
2018-05-24T15:33:44.407Z,20.18
2018-05-24T15:36:10.744Z,20.14
2018-05-24T15:38:37.031Z,20.07
2018-05-24T15:41:03.368Z,20.00
2018-05-24T15:43:29.672Z,19.98
2018-05-24T15:45:55.964Z,20.02
2018-05-24T15:48:22.257Z,20.02
2018-05-24T15:50:48.553Z,19.89
2018-05-24T15:53:14.880Z,19.84
2018-05-24T15:55:41.175Z,19.88
2018-05-24T15:58:07.460Z,19.97
2018-05-24T16:00:33.756Z,19.97
2018-05-24T16:03:00.094Z,19.92
2018-05-24T16:05:26.386Z,19.91
2018-05-24T16:07:52.746Z,19.89
2018-05-24T16:10:19.036Z,19.82
2018-05-24T16:12:45.322Z,19.71
2018-05-24T16:15:11.607Z,19.49
2018-05-24T16:17:37.945Z,19.47
2018-05-24T16:20:04.239Z,19.45
2018-05-24T16:22:30.589Z,19.46
2018-05-24T16:24:56.875Z,19.42
2018-05-24T16:27:23.209Z,19.38
2018-05-24T16:29:49.536Z,19.43
2018-05-24T16:32:15.824Z,19.45
2018-05-24T16:34:42.117Z,19.49
2018-05-24T16:37:08.405Z,19.43
2018-05-24T16:39:34.699Z,19.44
2018-05-24T16:42:00.983Z,19.44
2018-05-24T16:44:27.281Z,19.43
2018-05-24T16:46:53.571Z,19.35
2018-05-24T16:49:19.912Z,19.31
2018-05-24T16:51:46.204Z,19.27
2018-05-24T16:54:12.511Z,19.29
2018-05-24T16:56:38.793Z,19.30
2018-05-24T16:59:05.080Z,19.28
2018-05-24T17:01:31.368Z,19.26
2018-05-24T17:03:57.661Z,19.25
2018-05-24T17:06:24.044Z,19.28
2018-05-24T17:08:50.273Z,19.23
2018-05-24T17:11:16.573Z,19.15
2018-05-24T17:13:42.909Z,19.11
2018-05-24T17:16:09.197Z,19.09
2018-05-24T17:18:35.529Z,19.07
2018-05-24T17:21:01.819Z,19.04
2018-05-24T17:23:28.149Z,19.04
2018-05-24T17:25:54.412Z,19.02
2018-05-24T17:28:20.708Z,19.00
2018-05-24T17:30:47.005Z,18.98
2018-05-24T17:33:13.298Z,18.93
2018-05-24T17:35:39.591Z,18.91
2018-05-24T17:38:05.891Z,18.89
2018-05-24T17:40:32.186Z,18.93
2018-05-24T17:42:58.476Z,18.95
2018-05-24T17:45:24.779Z,18.90
2018-05-24T17:47:51.066Z,18.88
2018-05-24T17:50:17.425Z,18.87
2018-05-24T17:52:43.712Z,18.84
2018-05-24T17:55:10.072Z,18.74
2018-05-24T17:57:36.355Z,18.66
2018-05-24T18:00:02.664Z,18.62
2018-05-24T18:02:28.950Z,18.66
2018-05-24T18:04:55.292Z,18.74
2018-05-24T18:07:21.622Z,18.60
2018-05-24T18:09:47.923Z,18.57
2018-05-24T18:12:14.221Z,18.58
2018-05-24T18:14:40.515Z,18.55
2018-05-24T18:17:06.818Z,18.61
2018-05-24T18:19:33.112Z,18.71
2018-05-24T18:21:59.458Z,18.64
2018-05-24T18:24:25.749Z,18.54
2018-05-24T18:26:52.043Z,18.51
2018-05-24T18:29:18.338Z,18.47
2018-05-24T18:31:44.632Z,18.42
2018-05-24T18:34:10.924Z,18.41
2018-05-24T18:36:37.241Z,18.41
2018-05-24T18:39:03.528Z,18.42
2018-05-24T18:41:29.830Z,18.41
2018-05-24T18:43:56.112Z,18.37
2018-05-24T18:46:22.424Z,18.31
2018-05-24T18:48:48.722Z,22.24
2018-05-24T18:51:15.065Z,20.72
2018-05-24T18:53:41.370Z,19.54
2018-05-24T18:56:07.738Z,18.86
2018-05-24T18:58:33.998Z,18.55
2018-05-24T19:01:00.285Z,18.36
2018-05-24T19:03:26.576Z,18.25
2018-05-24T19:05:52.870Z,18.13
2018-05-24T19:08:19.165Z,18.10
2018-05-24T19:10:45.457Z,18.12
2018-05-24T19:13:11.748Z,18.17
2018-05-24T19:15:38.036Z,18.22
2018-05-24T19:18:04.335Z,18.29
2018-05-24T19:20:30.615Z,18.39
2018-05-24T19:22:56.908Z,18.42
2018-05-24T19:25:23.205Z,18.40
2018-05-24T19:27:49.536Z,18.43
2018-05-24T19:30:15.829Z,18.36
2018-05-24T19:32:42.160Z,18.33
2018-05-24T19:35:08.453Z,18.34
2018-05-24T19:37:34.748Z,18.31
2018-05-24T19:40:01.040Z,18.30
2018-05-24T19:42:27.331Z,18.32
2018-05-24T19:44:53.619Z,18.28
2018-05-24T19:47:19.953Z,18.28
2018-05-24T19:49:46.247Z,18.38
2018-05-24T19:52:12.534Z,18.43
2018-05-24T19:54:38.829Z,18.30
2018-05-24T19:57:05.115Z,18.27
2018-05-24T19:59:31.422Z,18.21
2018-05-24T20:01:57.713Z,18.10
2018-05-24T20:04:24.011Z,17.99
2018-05-24T20:06:50.298Z,17.95
2018-05-24T20:09:16.589Z,17.78
2018-05-24T20:11:42.881Z,17.66
2018-05-24T20:14:09.176Z,17.56
2018-05-24T20:16:35.470Z,17.48
2018-05-24T20:19:01.806Z,17.32
2018-05-24T20:21:28.092Z,17.23
2018-05-24T20:23:54.442Z,17.19
2018-05-24T20:26:20.741Z,17.16
2018-05-24T20:28:47.029Z,17.14
2018-05-24T20:31:13.368Z,17.13
2018-05-24T20:33:39.660Z,17.07
2018-05-24T20:36:05.949Z,17.00
2018-05-24T20:38:32.247Z,16.87
2018-05-24T20:40:58.537Z,16.75
2018-05-24T20:43:24.877Z,16.68
2018-05-24T20:45:51.226Z,16.63
2018-05-24T20:48:17.522Z,16.56
2018-05-24T20:50:43.868Z,16.46
2018-05-24T20:53:10.159Z,16.50
2018-05-24T20:55:36.493Z,16.43
2018-05-24T20:58:02.788Z,16.46
2018-05-24T21:00:29.165Z,16.38
2018-05-24T21:02:55.490Z,16.40
2018-05-24T21:05:21.780Z,16.35
2018-05-24T21:07:48.113Z,16.35
2018-05-24T21:10:14.405Z,16.32
2018-05-24T21:12:40.700Z,16.30
2018-05-24T21:15:06.993Z,16.24
2018-05-24T21:17:33.321Z,16.18
2018-05-24T21:19:59.616Z,16.17
2018-05-24T21:22:25.948Z,16.21
2018-05-24T21:24:52.239Z,16.19
2018-05-24T21:27:18.532Z,16.18
2018-05-24T21:29:44.831Z,16.15
2018-05-24T21:32:11.127Z,16.11
2018-05-24T21:34:37.463Z,16.09
2018-05-24T21:37:03.758Z,16.07
2018-05-24T21:39:30.046Z,16.08
2018-05-24T21:41:56.348Z,16.05
2018-05-24T21:44:22.639Z,16.07
2018-05-24T21:46:48.969Z,16.10
2018-05-24T21:49:21.622Z,16.13
2018-05-24T21:51:41.935Z,16.16
2018-05-24T21:54:08.231Z,16.18
2018-05-24T21:56:34.528Z,16.11
2018-05-24T21:59:00.816Z,16.06
2018-05-24T22:01:27.105Z,16.04
2018-05-24T22:03:53.393Z,16.04
2018-05-24T22:06:19.734Z,15.99
2018-05-24T22:08:46.027Z,16.00
2018-05-24T22:11:12.316Z,16.06
2018-05-24T22:13:38.609Z,16.09
2018-05-24T22:16:04.908Z,16.04
2018-05-24T22:18:31.195Z,15.90
2018-05-24T22:20:57.531Z,15.83
2018-05-24T22:23:23.830Z,15.83
2018-05-24T22:25:50.129Z,15.77
2018-05-24T22:28:16.426Z,15.70
2018-05-24T22:30:42.741Z,15.97
2018-05-24T22:33:09.035Z,16.15
2018-05-24T22:35:35.335Z,16.23
2018-05-24T22:38:01.625Z,16.12
2018-05-24T22:40:27.916Z,15.82
2018-05-24T22:42:54.215Z,15.90
2018-05-24T22:45:20.509Z,15.84
2018-05-24T22:47:46.817Z,15.93
2018-05-24T22:50:13.107Z,15.96
2018-05-24T22:52:39.387Z,15.78
2018-05-24T22:55:05.685Z,15.66
2018-05-24T22:57:31.983Z,15.53
2018-05-24T22:59:58.275Z,15.40
2018-05-24T23:02:24.583Z,15.37
2018-05-24T23:04:50.876Z,15.34
2018-05-24T23:07:17.169Z,15.33
2018-05-24T23:09:43.460Z,15.28
2018-05-24T23:12:09.757Z,15.19
2018-05-24T23:14:36.055Z,15.31
2018-05-24T23:17:02.344Z,15.39
2018-05-24T23:19:28.637Z,15.40
2018-05-24T23:21:54.936Z,15.34
2018-05-24T23:24:21.264Z,15.44
2018-05-24T23:26:47.560Z,15.44
2018-05-24T23:29:13.900Z,15.38
2018-05-24T23:31:40.186Z,15.11
2018-05-24T23:34:06.484Z,15.05
2018-05-24T23:36:32.784Z,14.81
2018-05-24T23:38:59.080Z,14.82
2018-05-24T23:41:25.379Z,14.98
2018-05-24T23:43:51.708Z,14.89
2018-05-24T23:46:17.999Z,14.63
2018-05-24T23:48:44.283Z,14.68
2018-05-24T23:51:10.571Z,14.67
2018-05-24T23:53:36.876Z,14.63
2018-05-24T23:56:03.163Z,14.61
2018-05-24T23:58:29.456Z,14.58
